CGY weather

Laguindingan Airport
Cagayan de Oro City, Misamis Oriental Province, Philippines

Public forecast

Using degrees Celsius for public forecast. Weather courtesy of forecast.io.

METAR (pilot weather report)

Report is more than 6 hours old.

Closest report is Cagayan De Oro Airport, 14.9 nm (27.7 km) SE. Retrieved 2016/02/15 09:00 UTC (3 years ago):

RPML 150900Z 36016KT 9999 FEW019 27/22 Q1013 NOSIG RMK A2991

TAF (pilot weather forecast)

Forecast is more than 12 hours old.

Closest forecast is Cagayan De Oro Airport, 14.9 nm (27.7 km) SE. Retrieved 2013/10/16 12:12 UTC (6 years ago):

TAF RPML 161100Z 1612/1712 34005KT 9999 FEW018 SCT080 TEMPO 1612/1618 02003KT 8000 -RA FEW017CB SCT018 BKN080